Time;durP1;ratioP1;P1;durP2;ratioP2;P2;SDS_P1;SDS_P2;PMS_P1;PMS_P2;Temp;Humidity;BMP_temperature;BMP_pressure;BME280_temperature;BME280_humidity;BME280_pressure;Samples;Min_cycle;Max_cycle;Signal;HPM_P1;HPM_P2
2022/08/14 00:02:04;;;;;;;10.90;7.60;;;;;;;22.45;69.71;100220.15;103699;1277;138790;-66
2022/08/14 00:04:35;;;;;;;9.80;7.30;;;;;;;22.41;69.86;100214.86;103538;1278;99257;-67
2022/08/14 00:07:12;;;;;;;11.00;7.60;;;;;;;22.42;69.85;100212.24;103360;1278;138349;-66
2022/08/14 00:09:42;;;;;;;10.50;7.60;;;;;;;22.43;69.78;100209.47;103510;1277;94388;-66
2022/08/14 00:12:32;;;;;;;9.80;6.60;;;;;;;22.38;70.00;100205.14;103289;1277;138612;-66
2022/08/14 00:15:22;;;;;;;9.90;7.30;;;;;;;22.33;70.34;100205.71;103464;1277;109454;-65
2022/08/14 00:17:52;;;;;;;8.60;6.70;;;;;;;22.31;70.32;100202.40;103583;1277;99817;-66
2022/08/14 00:20:26;;;;;;;9.40;6.90;;;;;;;22.33;70.46;100199.02;103438;1277;138359;-68
2022/08/14 00:22:59;;;;;;;10.20;6.90;;;;;;;22.33;70.75;100197.03;103490;1277;94574;-66
2022/08/14 00:25:48;;;;;;;9.30;6.40;;;;;;;22.34;70.80;100190.60;103339;1278;138799;-66
2022/08/14 00:28:34;;;;;;;10.30;6.90;;;;;;;22.32;70.87;100187.85;103422;1277;108380;-66
2022/08/14 00:31:05;;;;;;;9.10;6.50;;;;;;;22.37;70.43;100184.44;103416;1278;139889;-66
2022/08/14 00:33:35;;;;;;;9.60;6.80;;;;;;;22.37;70.47;100179.88;103798;1277;96107;-67
2022/08/14 00:36:22;;;;;;;9.00;6.50;;;;;;;22.35;70.48;100176.42;103577;1277;138471;-66
2022/08/14 00:39:14;;;;;;;8.80;6.70;;;;;;;22.36;70.48;100176.59;103476;1277;94957;-67
2022/08/14 00:41:46;;;;;;;9.90;6.90;;;;;;;22.24;70.75;100177.06;103556;1277;109204;-66
2022/08/14 00:44:15;;;;;;;9.00;6.60;;;;;;;22.17;71.01;100177.45;103485;1277;139338;-66
2022/08/14 00:47:04;;;;;;;9.60;6.70;;;;;;;22.17;71.26;100176.90;103438;1277;109170;-66
2022/08/14 00:49:37;;;;;;;9.90;7.00;;;;;;;22.10;71.45;100175.48;103341;1277;138201;-66
2022/08/14 00:52:12;;;;;;;9.30;6.70;;;;;;;22.06;71.82;100174.73;103607;1277;94932;-66
2022/08/14 00:54:51;;;;;;;9.70;6.40;;;;;;;21.99;71.87;100177.80;103473;1277;139010;-66
2022/08/14 00:57:27;;;;;;;10.10;6.70;;;;;;;21.97;72.01;100179.60;103431;1278;98767;-65
2022/08/14 00:59:56;;;;;;;9.80;6.70;;;;;;;21.97;72.08;100177.23;103532;1278;108798;-66
2022/08/14 01:02:25;;;;;;;10.00;6.70;;;;;;;22.01;71.96;100179.22;104061;1277;139086;-70
2022/08/14 01:04:57;;;;;;;9.30;6.80;;;;;;;22.07;71.82;100178.77;103611;1278;94659;-72
2022/08/14 01:07:28;;;;;;;8.70;6.70;;;;;;;22.11;71.64;100180.85;103481;1277;137964;-72
2022/08/14 01:10:15;;;;;;;11.10;7.10;;;;;;;22.10;71.95;100179.51;103441;1278;99467;-71
2022/08/14 01:12:44;;;;;;;10.60;7.10;;;;;;;22.07;72.46;100181.52;103329;1278;139463;-72
2022/08/14 01:15:20;;;;;;;10.70;6.70;;;;;;;22.14;72.38;100177.69;103641;1277;94621;-72
2022/08/14 01:21:05;;;;;;;10.00;6.80;;;;;;;22.28;71.76;100171.78;103549;1277;108407;-73
2022/08/14 01:23:50;;;;;;;9.90;7.30;;;;;;;22.28;72.01;100162.52;103718;1278;99418;-73
2022/08/14 01:26:23;;;;;;;9.10;7.10;;;;;;;22.23;72.26;100154.74;103623;1277;138926;-71
2022/08/14 01:29:06;;;;;;;10.20;7.40;;;;;;;22.25;72.14;100150.83;103473;1277;94295;-71
2022/08/14 01:31:47;;;;;;;9.60;7.10;;;;;;;22.28;71.92;100152.56;103381;1278;138600;-71
2022/08/14 01:34:24;;;;;;;9.70;7.20;;;;;;;22.25;72.02;100160.79;103622;1278;107097;-71
2022/08/14 01:37:12;;;;;;;10.70;7.80;;;;;;;22.24;72.04;100160.66;103367;1278;138556;-72
2022/08/14 01:39:43;;;;;;;11.10;7.70;;;;;;;22.16;72.53;100164.85;103476;1277;109184;-71
2022/08/14 01:42:11;;;;;;;10.00;7.60;;;;;;;22.10;72.52;100167.90;103392;1278;139274;-70
2022/08/14 01:44:59;;;;;;;11.40;7.70;;;;;;;22.12;72.43;100165.90;103514;1277;94842;-71
2022/08/14 01:47:31;;;;;;;10.70;8.00;;;;;;;22.15;72.23;100163.73;103739;1278;108323;-71
2022/08/14 01:50:06;;;;;;;10.00;8.00;;;;;;;22.15;72.13;100168.63;103532;1277;138759;-71
2022/08/14 01:52:37;;;;;;;11.00;7.90;;;;;;;22.11;72.16;100169.27;103557;1278;108795;-71
2022/08/14 01:55:30;;;;;;;10.70;7.50;;;;;;;22.11;72.46;100171.40;103392;1277;139112;-71
2022/08/14 01:58:00;;;;;;;10.50;8.00;;;;;;;22.05;72.67;100166.42;103632;1277;94529;-72
2022/08/14 02:00:55;;;;;;;10.90;7.90;;;;;;;22.10;72.38;100166.98;103314;1278;139126;-72
2022/08/14 02:03:29;;;;;;;10.90;7.90;;;;;;;22.14;72.40;100168.85;103612;1277;99476;-71
2022/08/14 02:05:58;;;;;;;11.80;8.20;;;;;;;22.08;72.59;100165.33;103696;1277;108718;-71
2022/08/14 02:08:47;;;;;;;10.90;8.10;;;;;;;21.88;73.22;100163.80;103517;1278;94422;-71
2022/08/14 02:11:24;;;;;;;9.90;7.30;;;;;;;21.91;73.32;100164.53;103533;1277;94392;-71
2022/08/14 02:14:00;;;;;;;11.30;7.60;;;;;;;21.92;73.29;100168.77;103408;1278;138820;-70
2022/08/14 02:16:40;;;;;;;9.50;7.50;;;;;;;21.85;73.56;100170.04;103610;1277;99628;-71
2022/08/14 02:19:15;;;;;;;10.40;7.60;;;;;;;21.79;73.99;100171.05;103729;1277;138761;-71
2022/08/14 02:21:45;;;;;;;10.40;8.00;;;;;;;21.83;74.06;100165.12;103586;1277;94715;-71
2022/08/14 02:24:19;;;;;;;9.90;7.00;;;;;;;21.90;73.58;100160.61;103399;1278;139199;-71
2022/08/14 02:27:09;;;;;;;10.30;6.60;;;;;;;21.93;73.01;100161.80;103480;1278;107537;-71
2022/08/14 02:29:58;;;;;;;9.50;6.50;;;;;;;21.89;72.47;100156.67;103475;1278;99448;-72
2022/08/14 02:32:32;;;;;;;11.10;6.50;;;;;;;21.92;72.46;100151.91;103456;1277;138620;-72
2022/08/14 02:35:17;;;;;;;9.50;5.70;;;;;;;21.95;71.93;100143.56;103452;1278;94475;-72
2022/08/14 02:37:53;;;;;;;9.80;6.30;;;;;;;21.88;70.99;100139.04;103491;1278;138477;-72
2022/08/14 02:40:21;;;;;;;9.60;5.90;;;;;;;21.85;70.58;100134.01;103389;1278;108940;-72
2022/08/14 02:43:01;;;;;;;7.80;5.40;;;;;;;21.80;70.59;100133.38;103363;1278;138596;-71
2022/08/14 02:45:34;;;;;;;8.20;5.60;;;;;;;21.77;70.65;100131.91;103447;1277;108811;-70
2022/08/14 02:48:13;;;;;;;9.00;5.50;;;;;;;21.76;70.28;100134.90;103321;1278;139484;-70
2022/08/14 02:51:06;;;;;;;8.00;5.60;;;;;;;21.76;70.38;100131.68;103478;1277;94710;-71
2022/08/14 02:53:38;;;;;;;9.50;5.40;;;;;;;21.78;70.18;100129.87;103558;1277;108361;-73
2022/08/14 02:56:14;;;;;;;7.60;5.20;;;;;;;21.77;70.38;100130.85;103666;1277;138740;-73
2022/08/14 02:59:05;;;;;;;9.90;5.70;;;;;;;21.79;70.12;100126.52;103478;1277;108813;-72
2022/08/14 03:01:34;;;;;;;12.60;5.60;;;;;;;21.81;69.87;100128.37;103402;1278;138384;-71
2022/08/14 03:04:17;;;;;;;10.50;6.00;;;;;;;21.74;69.76;100124.05;103537;1277;94514;-71
2022/08/14 03:06:48;;;;;;;7.60;4.90;;;;;;;21.73;69.81;100127.41;103414;1278;139029;-71
2022/08/14 03:09:38;;;;;;;8.20;5.70;;;;;;;21.69;70.01;100121.88;103541;1278;97600;-70
2022/08/14 03:12:26;;;;;;;10.00;6.10;;;;;;;21.59;69.85;100124.32;103387;1278;138881;-72
2022/08/14 03:15:07;;;;;;;8.70;5.80;;;;;;;21.59;70.18;100123.23;103534;1277;94765;-72
2022/08/14 03:17:43;;;;;;;8.00;5.40;;;;;;;21.63;70.14;100115.50;103464;1278;94455;-72
2022/08/14 03:20:29;;;;;;;8.80;5.90;;;;;;;21.65;70.28;100114.43;103297;1277;138402;-72
2022/08/14 03:22:59;;;;;;;8.70;5.90;;;;;;;21.59;70.07;100112.89;104207;1278;99506;-71
2022/08/14 03:25:34;;;;;;;9.60;6.00;;;;;;;21.55;70.33;100113.08;104066;1277;138892;-72
2022/08/14 03:28:07;;;;;;;8.50;5.90;;;;;;;21.59;70.38;100106.38;103385;1278;94622;-71
2022/08/14 03:30:57;;;;;;;10.40;5.90;;;;;;;21.57;70.10;100106.55;103234;1277;138468;-72
2022/08/14 03:33:27;;;;;;;8.40;5.40;;;;;;;21.60;70.24;100100.69;103401;1277;108413;-72
2022/08/14 03:36:12;;;;;;;10.20;5.60;;;;;;;21.66;70.19;100101.00;103369;1278;99537;-72
2022/08/14 03:39:03;;;;;;;9.30;5.70;;;;;;;21.60;70.24;100104.34;103379;1277;109574;-72
2022/08/14 03:41:54;;;;;;;9.40;6.20;;;;;;;21.45;70.29;100108.70;103397;1277;94698;-71
2022/08/14 03:44:26;;;;;;;9.30;6.30;;;;;;;21.40;70.74;100104.23;103282;1278;138681;-71
2022/08/14 03:47:15;;;;;;;9.40;6.20;;;;;;;21.46;70.70;100105.55;103365;1277;108648;-71
2022/08/14 03:49:45;;;;;;;9.40;5.90;;;;;;;21.49;70.62;100107.52;103727;1278;139638;-71
2022/08/14 03:52:17;;;;;;;9.40;5.80;;;;;;;21.45;70.74;100111.45;103434;1278;108666;-71
2022/08/14 03:55:08;;;;;;;8.90;6.10;;;;;;;21.50;70.64;100107.42;103296;1278;138757;-71
2022/08/14 03:57:37;;;;;;;8.50;5.90;;;;;;;21.48;70.56;100105.97;103697;1277;94319;-69
2022/08/14 04:00:12;;;;;;;9.80;5.70;;;;;;;21.42;70.82;100102.09;103338;1277;108759;-71
2022/08/14 04:03:04;;;;;;;10.30;6.10;;;;;;;21.48;70.96;100096.17;103244;1278;99223;-71
2022/08/14 04:05:37;;;;;;;9.10;6.10;;;;;;;21.50;70.95;100093.86;103769;1277;108866;-72
2022/08/14 04:08:17;;;;;;;9.50;6.50;;;;;;;21.50;71.07;100096.04;103327;1277;138532;-72
2022/08/14 04:10:59;;;;;;;8.60;5.80;;;;;;;21.50;71.03;100097.80;103372;1277;95492;-71
2022/08/14 04:13:30;;;;;;;8.70;6.30;;;;;;;21.55;71.18;100097.89;103251;1278;138658;-71
2022/08/14 04:16:06;;;;;;;10.20;6.20;;;;;;;21.56;71.26;100102.88;103490;1278;99912;-73
2022/08/14 04:18:42;;;;;;;10.10;6.50;;;;;;;21.52;71.61;100105.50;103257;1278;138788;-72
2022/08/14 04:21:11;;;;;;;9.10;6.70;;;;;;;21.46;71.67;100111.90;103503;1277;94364;-72
2022/08/14 04:23:42;;;;;;;10.00;6.70;;;;;;;21.43;71.95;100116.07;103404;1278;94525;-71
2022/08/14 04:26:12;;;;;;;10.10;6.30;;;;;;;21.41;72.15;100118.95;103446;1278;138872;-72
2022/08/14 04:28:42;;;;;;;10.50;6.50;;;;;;;21.48;72.29;100120.26;103807;1277;100027;-72
2022/08/14 04:31:30;;;;;;;9.50;6.50;;;;;;;21.59;72.12;100116.16;103323;1277;139015;-69
2022/08/14 04:34:18;;;;;;;9.40;6.20;;;;;;;21.66;71.81;100110.74;103278;1280;94877;-70
2022/08/14 04:45:35;;;;;;;9.60;6.30;;;;;;;21.63;71.62;100125.12;103407;1278;108851;-71
2022/08/14 04:48:15;;;;;;;8.70;6.50;;;;;;;21.64;71.63;100127.69;103408;1277;94405;-71
2022/08/14 04:51:05;;;;;;;11.00;7.00;;;;;;;21.60;71.52;100127.45;103410;1277;95409;-71
2022/08/14 04:53:35;;;;;;;9.90;6.80;;;;;;;21.54;71.93;100125.02;103392;1278;108419;-73
2022/08/14 04:56:11;;;;;;;10.10;6.70;;;;;;;21.48;72.00;100125.44;103650;1277;138635;-71
2022/08/14 04:59:05;;;;;;;10.50;7.00;;;;;;;21.48;72.11;100125.65;103379;1277;108807;-70
2022/08/14 05:01:41;;;;;;;9.20;6.70;;;;;;;21.50;72.14;100126.94;103284;1278;139219;-70
2022/08/14 05:04:19;;;;;;;10.10;6.80;;;;;;;21.52;72.02;100123.70;103428;1278;94810;-71
2022/08/14 05:06:51;;;;;;;8.70;6.40;;;;;;;21.56;72.18;100120.95;103558;1278;139374;-71
2022/08/14 05:09:22;;;;;;;9.30;6.30;;;;;;;21.59;72.20;100117.65;103391;1277;99853;-72
2022/08/14 05:11:51;;;;;;;10.10;7.00;;;;;;;21.66;71.94;100117.04;103333;1279;108833;-71
2022/08/14 05:14:21;;;;;;;10.00;7.00;;;;;;;21.66;71.92;100123.24;103407;1278;138342;-71
2022/08/14 05:17:10;;;;;;;10.10;6.90;;;;;;;21.75;72.07;100127.61;103436;1279;94411;-71
2022/08/14 05:19:39;;;;;;;9.20;6.50;;;;;;;21.73;71.79;100126.50;103356;1280;138726;-70
2022/08/14 05:22:27;;;;;;;8.80;6.40;;;;;;;21.74;72.00;100124.98;103438;1280;99375;-70
2022/08/14 05:24:55;;;;;;;9.10;7.00;;;;;;;21.83;72.17;100125.85;103535;1277;139492;-72
2022/08/14 05:27:24;;;;;;;9.90;6.90;;;;;;;21.93;71.61;100125.64;103407;1279;94602;-72
2022/08/14 05:29:57;;;;;;;10.90;7.60;;;;;;;21.96;71.43;100118.95;103444;1278;94354;-71
2022/08/14 05:32:26;;;;;;;9.30;6.80;;;;;;;22.00;71.57;100121.32;103303;1277;138512;-72
2022/08/14 05:34:57;;;;;;;9.30;7.20;;;;;;;22.01;71.27;100123.58;103725;1278;98605;-72
2022/08/14 05:37:27;;;;;;;11.10;7.40;;;;;;;22.00;71.52;100120.79;103206;1279;138869;-72
2022/08/14 05:39:58;;;;;;;10.80;7.30;;;;;;;22.11;71.49;100119.88;103444;1277;95151;-71
2022/08/14 05:42:28;;;;;;;10.30;7.80;;;;;;;22.13;71.62;100119.89;103279;1279;139269;-71
2022/08/14 05:45:02;;;;;;;10.00;7.50;;;;;;;22.10;71.46;100122.16;103336;1278;110038;-71
2022/08/14 05:47:31;;;;;;;11.90;7.80;;;;;;;22.01;71.78;100127.37;103561;1279;99380;-71
2022/08/14 05:50:09;;;;;;;10.40;7.70;;;;;;;21.97;71.65;100124.98;103180;1279;139273;-70
2022/08/14 05:52:48;;;;;;;12.20;8.00;;;;;;;21.87;72.22;100123.58;103316;1279;95247;-71
2022/08/14 05:55:19;;;;;;;11.40;8.30;;;;;;;21.90;72.66;100121.94;103143;1279;139352;-70
2022/08/14 05:57:51;;;;;;;10.70;8.30;;;;;;;21.90;72.48;100120.85;103976;1279;109776;-69
2022/08/14 06:00:22;;;;;;;12.00;8.50;;;;;;;21.93;72.86;100118.78;103350;1279;139193;-70
2022/08/14 06:03:00;;;;;;;10.60;8.00;;;;;;;21.97;72.76;100112.36;103368;1279;108512;-72
2022/08/14 06:05:34;;;;;;;11.40;8.50;;;;;;;22.03;73.24;100110.78;107185;1279;93524;-72
2022/08/14 06:08:31;;;;;;;11.40;7.70;;;;;;;22.15;72.87;100110.92;107087;1279;138896;-69
2022/08/14 06:11:09;;;;;;;10.90;8.10;;;;;;;22.24;72.50;100110.61;103276;1279;110793;-70
2022/08/14 06:13:42;;;;;;;11.40;8.30;;;;;;;22.26;72.48;100106.62;103225;1279;139407;-71
2022/08/14 06:16:16;;;;;;;10.90;8.40;;;;;;;22.36;72.74;100104.67;103322;1279;109634;-72
2022/08/14 06:18:47;;;;;;;11.90;8.10;;;;;;;22.42;72.28;100106.60;103276;1279;139553;-72
2022/08/14 06:21:23;;;;;;;11.20;8.70;;;;;;;22.48;72.41;100107.20;103474;1279;95734;-71
2022/08/14 06:23:52;;;;;;;11.30;9.20;;;;;;;22.54;72.18;100102.88;103257;1281;109769;-71
2022/08/14 06:26:20;;;;;;;12.60;9.10;;;;;;;22.57;72.17;100103.77;103219;1279;139216;-70
2022/08/14 06:28:57;;;;;;;13.00;8.90;;;;;;;22.54;72.00;100094.77;103291;1279;109032;-70
2022/08/14 06:31:25;;;;;;;13.40;9.10;;;;;;;22.51;72.13;100096.48;103374;1279;139296;-71
2022/08/14 06:33:53;;;;;;;12.00;8.90;;;;;;;22.51;72.34;100096.67;103334;1279;95224;-69
2022/08/14 06:36:41;;;;;;;12.80;9.50;;;;;;;22.53;72.51;100098.30;103229;1279;139287;-71
2022/08/14 06:39:09;;;;;;;16.30;10.10;;;;;;;22.55;72.49;100099.37;103345;1279;99191;-71
2022/08/14 06:41:40;;;;;;;12.50;8.70;;;;;;;22.64;72.45;100098.73;103315;1279;108666;-70
2022/08/14 06:44:27;;;;;;;13.50;9.50;;;;;;;22.68;72.31;100105.39;103377;1279;138825;-71
2022/08/14 06:47:01;;;;;;;13.20;9.30;;;;;;;22.76;72.25;100105.11;103450;1278;95668;-72
2022/08/14 06:49:31;;;;;;;11.50;9.30;;;;;;;22.87;72.19;100102.80;103347;1278;139570;-72
2022/08/14 06:52:13;;;;;;;12.70;9.50;;;;;;;22.92;72.07;100100.91;103328;1280;99956;-72
2022/08/14 06:54:44;;;;;;;13.70;9.80;;;;;;;22.96;71.97;100107.81;103463;1279;138842;-71
2022/08/14 06:57:12;;;;;;;12.40;9.50;;;;;;;22.94;71.96;100108.95;103431;1279;95598;-71
2022/08/14 06:59:41;;;;;;;12.00;9.50;;;;;;;22.92;72.06;100112.52;103409;1279;95704;-69
2022/08/14 07:07:50;;;;;;;12.50;9.20;;;;;;;23.29;71.93;100102.42;103303;1278;138980;-71
2022/08/14 07:10:21;;;;;;;12.30;9.20;;;;;;;23.45;71.69;100102.70;103544;1278;95341;-71
2022/08/14 07:12:52;;;;;;;12.70;9.30;;;;;;;23.60;71.19;100102.66;103439;1279;139445;-71
2022/08/14 07:15:32;;;;;;;13.10;9.60;;;;;;;23.67;70.48;100102.61;103428;1278;109224;-71
2022/08/14 07:18:09;;;;;;;12.70;10.00;;;;;;;23.75;70.51;100098.88;103479;1279;97330;-71
2022/08/14 07:20:40;;;;;;;14.20;9.50;;;;;;;23.86;70.54;100103.35;103647;1278;108998;-72
2022/08/14 07:23:09;;;;;;;11.00;8.80;;;;;;;23.97;70.09;100102.02;103363;1278;95745;-69
2022/08/14 07:25:50;;;;;;;13.70;9.80;;;;;;;24.04;69.73;100106.51;103443;1279;139047;-70
2022/08/14 07:28:33;;;;;;;12.00;9.20;;;;;;;24.10;69.48;100105.83;103291;1280;111553;-69
2022/08/14 07:31:05;;;;;;;13.00;9.60;;;;;;;24.10;68.84;100100.89;103473;1279;138836;-71
2022/08/14 07:33:43;;;;;;;12.70;10.00;;;;;;;24.14;69.38;100101.62;103344;1277;108828;-69
2022/08/14 07:36:19;;;;;;;11.90;9.90;;;;;;;24.22;68.18;100093.91;103263;1279;139200;-70
2022/08/14 07:38:58;;;;;;;12.70;9.80;;;;;;;24.22;68.54;100098.05;103267;1280;95840;-71
2022/08/14 07:41:28;;;;;;;13.30;9.50;;;;;;;24.34;68.93;100096.46;103479;1278;110036;-71
2022/08/14 07:44:02;;;;;;;13.00;9.80;;;;;;;24.47;68.59;100091.48;103185;1279;139518;-69
2022/08/14 07:46:51;;;;;;;13.10;9.80;;;;;;;24.63;68.22;100091.91;103314;1279;109011;-71
2022/08/14 07:49:21;;;;;;;13.30;10.10;;;;;;;24.73;68.03;100090.05;103929;1277;138827;-70
2022/08/14 07:51:51;;;;;;;12.20;9.50;;;;;;;24.79;67.50;100091.52;103461;1278;95240;-72
2022/08/14 07:54:19;;;;;;;13.10;9.70;;;;;;;24.69;67.16;100089.85;103461;1278;138981;-71
2022/08/14 07:56:58;;;;;;;12.10;9.40;;;;;;;24.63;66.84;100088.24;103444;1278;98458;-71
2022/08/14 07:59:27;;;;;;;12.90;9.40;;;;;;;24.67;67.57;100085.73;103455;1277;108887;-70
2022/08/14 08:02:12;;;;;;;12.70;9.50;;;;;;;24.84;67.50;100083.66;103606;1279;139179;-71
2022/08/14 08:04:49;;;;;;;14.20;10.00;;;;;;;24.89;67.11;100083.00;103352;1278;95949;-71
2022/08/14 08:07:24;;;;;;;12.80;9.60;;;;;;;25.07;66.54;100085.39;103274;1278;138568;-72
2022/08/14 08:09:59;;;;;;;12.90;9.40;;;;;;;25.17;66.60;100091.10;103589;1279;99304;-72
2022/08/14 08:12:30;;;;;;;13.40;9.30;;;;;;;25.15;65.67;100093.37;103472;1278;138998;-70
2022/08/14 08:15:00;;;;;;;12.50;9.00;;;;;;;25.07;66.21;100089.58;103389;1278;95253;-70
2022/08/14 08:17:38;;;;;;;12.50;9.30;;;;;;;25.09;66.48;100089.69;103980;1277;95142;-70
2022/08/14 08:20:24;;;;;;;11.80;9.10;;;;;;;25.33;66.21;100088.80;103164;1278;139676;-70
2022/08/14 08:22:57;;;;;;;14.30;9.80;;;;;;;25.40;66.17;100088.84;103066;1279;99544;-69
2022/08/14 08:25:35;;;;;;;14.10;10.50;;;;;;;25.49;65.08;100086.80;102886;1278;138756;-70
2022/08/14 08:28:08;;;;;;;12.50;9.10;;;;;;;25.53;64.98;100082.14;103014;1279;96492;-69
2022/08/14 08:30:55;;;;;;;12.00;8.90;;;;;;;25.57;64.81;100086.94;107216;1277;139498;-69
2022/08/14 08:33:26;;;;;;;11.60;9.50;;;;;;;25.61;64.25;100086.94;103719;1279;109960;-70
2022/08/14 08:36:04;;;;;;;11.30;9.70;;;;;;;25.52;65.12;100089.20;103512;1278;99428;-69
2022/08/14 08:38:35;;;;;;;13.40;10.10;;;;;;;25.54;65.07;100085.96;103535;1279;138620;-70
2022/08/14 08:41:23;;;;;;;13.40;9.60;;;;;;;25.58;65.08;100088.14;103242;1280;95211;-70
2022/08/14 08:44:03;;;;;;;12.60;9.80;;;;;;;25.62;64.66;100091.18;103969;1278;139539;-71
2022/08/14 08:46:32;;;;;;;12.80;9.80;;;;;;;25.54;64.94;100092.34;103351;1278;109987;-71
2022/08/14 08:49:02;;;;;;;12.90;9.20;;;;;;;25.55;65.14;100090.38;102898;1279;140173;-71
2022/08/14 08:51:38;;;;;;;13.40;10.20;;;;;;;25.57;65.08;100091.64;103732;1279;108787;-71
2022/08/14 08:54:13;;;;;;;13.90;10.20;;;;;;;25.73;64.55;100090.30;103216;1279;95539;-71
2022/08/14 08:56:49;;;;;;;13.30;10.10;;;;;;;25.82;64.33;100091.33;103263;1277;95244;-72
2022/08/14 08:59:30;;;;;;;11.80;9.40;;;;;;;25.82;63.22;100092.52;103631;1279;109858;-71
2022/08/14 09:02:05;;;;;;;12.10;9.60;;;;;;;25.69;63.72;100091.62;103372;1280;139283;-70
2022/08/14 09:04:43;;;;;;;15.00;10.40;;;;;;;25.60;64.34;100091.72;103537;1278;108836;-71
2022/08/14 09:07:26;;;;;;;12.60;10.20;;;;;;;25.70;64.56;100093.83;103142;1280;139241;-70
2022/08/14 09:09:55;;;;;;;13.10;9.90;;;;;;;25.75;63.46;100092.67;103251;1280;95263;-72
2022/08/14 09:12:28;;;;;;;12.10;9.70;;;;;;;25.83;63.77;100094.67;103329;1278;139234;-72
2022/08/14 09:15:14;;;;;;;12.80;10.10;;;;;;;25.85;63.38;100094.80;103251;1280;99587;-72
2022/08/14 09:17:43;;;;;;;14.00;10.10;;;;;;;26.16;63.43;100092.82;103480;1279;108844;-72
2022/08/14 09:20:12;;;;;;;11.80;8.90;;;;;;;26.48;62.72;100084.58;103223;1279;139527;-72
2022/08/14 09:22:57;;;;;;;12.30;9.00;;;;;;;26.65;61.73;100082.74;103301;1278;95649;-71
2022/08/14 09:25:25;;;;;;;13.30;10.20;;;;;;;26.82;61.88;100080.89;103113;1279;139317;-71
2022/08/14 09:28:16;;;;;;;13.20;10.40;;;;;;;27.01;60.81;100075.88;103372;1279;97973;-71
2022/08/14 09:30:53;;;;;;;12.70;9.70;;;;;;;27.17;61.04;100072.84;103332;1280;138532;-72
2022/08/14 09:33:30;;;;;;;13.70;9.40;;;;;;;27.55;59.47;100072.39;103330;1280;95684;-70
2022/08/14 09:36:06;;;;;;;12.00;9.50;;;;;;;28.63;57.03;100071.70;103350;1279;95479;-72
2022/08/14 09:38:46;;;;;;;15.80;10.30;;;;;;;28.73;56.02;100074.30;104898;1278;138571;-71
2022/08/14 09:41:29;;;;;;;12.60;9.70;;;;;;;29.39;56.35;100071.11;103583;1278;98082;-70
2022/08/14 09:44:44;;;;;;;15.80;13.30;;;;;;;31.05;50.86;100072.96;103841;1279;138692;-71
2022/08/14 09:47:16;;;;;;;12.50;9.40;;;;;;;31.86;48.63;100066.41;103354;1280;95671;-71
2022/08/14 09:49:46;;;;;;;11.60;8.50;;;;;;;32.14;47.45;100070.21;103263;1277;138331;-71
2022/08/14 09:52:22;;;;;;;11.60;9.30;;;;;;;32.00;46.58;100070.64;104083;1278;109080;-70
2022/08/14 09:55:03;;;;;;;11.30;9.10;;;;;;;31.75;47.05;100060.56;103297;1278;138733;-69
2022/08/14 09:57:33;;;;;;;11.60;8.70;;;;;;;31.69;47.47;100062.04;104316;1278;109215;-70
2022/08/14 10:00:13;;;;;;;12.20;9.60;;;;;;;31.58;47.65;100058.79;103690;1277;95229;-72
2022/08/14 10:03:01;;;;;;;11.40;8.80;;;;;;;31.53;48.07;100056.08;102432;1278;97149;-71
2022/08/14 10:05:35;;;;;;;13.20;9.50;;;;;;;31.62;47.69;100056.49;103455;1277;108827;-71
2022/08/14 10:08:19;;;;;;;11.30;8.70;;;;;;;31.24;48.88;100053.23;103249;1277;139111;-70
2022/08/14 10:10:53;;;;;;;12.20;9.30;;;;;;;30.41;49.53;100055.62;103279;1278;108745;-69
2022/08/14 10:13:30;;;;;;;12.10;9.50;;;;;;;29.65;51.29;100049.42;103014;1277;140297;-70
2022/08/14 10:16:18;;;;;;;11.60;9.90;;;;;;;29.26;52.77;100045.55;103430;1278;95474;-69
2022/08/14 10:19:04;;;;;;;13.30;10.00;;;;;;;29.02;54.01;100039.69;103233;1277;138866;-70
2022/08/14 10:21:38;;;;;;;12.70;9.60;;;;;;;28.97;54.80;100040.33;103436;1278;99927;-71
2022/08/14 10:24:32;;;;;;;12.10;9.90;;;;;;;28.58;54.26;100037.90;103077;1278;138731;-71
2022/08/14 10:27:18;;;;;;;12.30;9.70;;;;;;;28.19;55.36;100038.32;103345;1279;95263;-70
2022/08/14 10:29:49;;;;;;;12.40;9.60;;;;;;;27.99;55.89;100042.02;103536;1278;95743;-71
2022/08/14 10:32:18;;;;;;;12.20;9.50;;;;;;;28.02;56.23;100038.73;103725;1277;138553;-70
2022/08/14 10:35:09;;;;;;;12.40;9.30;;;;;;;27.69;57.18;100040.20;103379;1278;97886;-70
2022/08/14 10:37:48;;;;;;;12.00;10.00;;;;;;;27.61;57.60;100037.98;103624;1277;138806;-70
2022/08/14 10:40:36;;;;;;;11.70;9.90;;;;;;;27.37;57.71;100038.92;103456;1277;96163;-70
2022/08/14 10:43:24;;;;;;;13.50;10.40;;;;;;;27.12;58.78;100042.95;103286;1278;138722;-70
2022/08/14 10:46:02;;;;;;;13.70;10.50;;;;;;;26.94;59.13;100042.58;103424;1277;110052;-71
2022/08/14 10:49:01;;;;;;;13.50;10.20;;;;;;;27.00;59.32;100039.56;103167;1277;140693;-69
2022/08/14 10:51:35;;;;;;;13.00;10.20;;;;;;;27.52;58.10;100035.35;103508;1278;109125;-70
2022/08/14 10:54:09;;;;;;;14.10;10.80;;;;;;;27.99;56.99;100036.01;103332;1277;97747;-71
2022/08/14 10:57:27;;;;;;;14.20;10.40;;;;;;;27.88;56.33;100036.90;103221;1278;96736;-71
2022/08/14 10:59:58;;;;;;;13.30;10.40;;;;;;;27.62;57.61;100035.25;103343;1278;109854;-70
2022/08/14 11:02:32;;;;;;;12.80;10.50;;;;;;;27.58;57.11;100032.55;103319;1277;138469;-70
2022/08/14 11:05:22;;;;;;;14.60;11.10;;;;;;;27.61;57.54;100028.40;103238;1280;108867;-71
2022/08/14 11:07:54;;;;;;;12.70;10.40;;;;;;;27.86;57.75;100019.27;103637;1278;139007;-71
2022/08/14 11:10:37;;;;;;;27.50;21.80;;;;;;;28.03;57.54;100017.64;103923;1278;95506;-70
2022/08/14 11:13:20;;;;;;;12.30;10.00;;;;;;;28.14;56.90;100012.48;103746;1278;138894;-70
2022/08/14 11:15:54;;;;;;;13.50;9.90;;;;;;;28.24;57.23;100008.66;103626;1277;99371;-71
2022/08/14 11:18:23;;;;;;;12.20;10.10;;;;;;;28.41;56.84;100010.16;103289;1277;138503;-70
2022/08/14 11:21:07;;;;;;;14.10;11.00;;;;;;;28.50;57.24;100010.64;103517;1278;95231;-71
2022/08/14 11:23:38;;;;;;;13.40;10.30;;;;;;;28.66;56.59;100005.49;103430;1278;95784;-70
2022/08/14 11:26:12;;;;;;;11.80;10.40;;;;;;;28.75;55.58;100000.31;103700;1277;139003;-70
2022/08/14 11:28:46;;;;;;;12.90;10.20;;;;;;;28.69;55.45;100007.69;103065;1278;97966;-69
2022/08/14 11:31:24;;;;;;;12.30;10.20;;;;;;;28.45;55.57;100007.54;103185;1277;141587;-70
2022/08/14 11:34:05;;;;;;;12.90;10.60;;;;;;;28.17;55.76;100006.77;103191;1278;95507;-70
2022/08/14 11:36:55;;;;;;;12.90;11.00;;;;;;;28.11;56.55;100000.73;103265;1280;138463;-70
2022/08/14 11:39:43;;;;;;;14.30;11.00;;;;;;;28.08;56.57;100000.02;103731;1277;109810;-69
2022/08/14 11:42:20;;;;;;;12.90;11.00;;;;;;;27.95;56.60;99999.54;104143;1277;138841;-70
2022/08/14 11:45:09;;;;;;;13.70;11.40;;;;;;;27.87;56.86;100005.44;103821;1277;109855;-71
2022/08/14 11:47:44;;;;;;;14.60;11.00;;;;;;;27.82;58.11;100008.40;103396;1278;96540;-70
2022/08/14 11:50:33;;;;;;;12.40;10.50;;;;;;;27.78;57.76;100012.58;103304;1278;139817;-69
2022/08/14 11:53:16;;;;;;;12.70;10.70;;;;;;;27.70;58.04;100010.38;103602;1278;109799;-70
2022/08/14 11:55:45;;;;;;;13.70;10.90;;;;;;;27.74;58.47;100010.70;103275;1277;139093;-70
2022/08/14 11:58:16;;;;;;;12.60;10.50;;;;;;;27.81;58.61;100006.04;104414;1278;108805;-71
2022/08/14 12:00:53;;;;;;;14.20;10.80;;;;;;;27.80;58.10;100003.29;103225;1277;138723;-69
2022/08/14 12:03:22;;;;;;;13.10;9.90;;;;;;;27.78;58.10;100001.30;103324;1277;95163;-70
2022/08/14 12:06:18;;;;;;;13.40;10.10;;;;;;;27.71;57.28;100000.27;103215;1278;138430;-70
2022/08/14 12:09:06;;;;;;;13.20;10.80;;;;;;;27.54;56.89;99992.31;103341;1277;100100;-70